createdAt,value
2018-09-26T00:01:57.417Z,95.30
2018-09-26T00:06:59.996Z,96.50
2018-09-26T00:12:02.523Z,95.70
2018-09-26T00:17:05.184Z,98.60
2018-09-26T00:22:07.735Z,97.30
2018-09-26T00:27:10.280Z,96.30
2018-09-26T00:32:12.832Z,97.20
2018-09-26T00:37:15.339Z,99.00
2018-09-26T00:42:17.884Z,99.00
2018-09-26T00:47:20.472Z,98.40
2018-09-26T00:52:23.027Z,99.20
2018-09-26T00:57:25.536Z,96.50
2018-09-26T01:02:28.047Z,95.70
2018-09-26T01:07:30.555Z,96.00
2018-09-26T01:12:33.151Z,96.20
2018-09-26T01:17:35.660Z,97.80
2018-09-26T01:22:38.228Z,98.40
2018-09-26T01:27:40.755Z,98.80
2018-09-26T01:32:43.335Z,96.00
2018-09-26T01:37:45.855Z,96.40
2018-09-26T01:42:48.425Z,95.80
2018-09-26T01:47:50.951Z,95.80
2018-09-26T01:52:53.453Z,94.50
2018-09-26T01:57:56.020Z,95.80
2018-09-26T02:02:58.562Z,96.20
2018-09-26T02:08:01.080Z,95.60
2018-09-26T02:13:03.604Z,96.10
2018-09-26T02:18:06.135Z,96.70
2018-09-26T02:23:08.662Z,97.00
2018-09-26T02:28:11.167Z,95.70
2018-09-26T02:33:15.076Z,96.80
2018-09-26T02:38:17.873Z,97.40
2018-09-26T02:43:20.481Z,97.00
2018-09-26T02:48:28.692Z,98.70
2018-09-26T02:53:31.227Z,96.80
2018-09-26T02:58:33.759Z,97.20
2018-09-26T03:03:36.335Z,97.40
2018-09-26T03:08:38.933Z,97.40
2018-09-26T03:13:41.470Z,97.30
2018-09-26T03:18:43.976Z,97.50
2018-09-26T03:23:46.513Z,97.10
2018-09-26T03:28:49.095Z,97.30
2018-09-26T03:33:51.645Z,97.10
2018-09-26T03:38:54.139Z,97.40
2018-09-26T03:43:56.664Z,99.40
2018-09-26T03:48:59.213Z,99.50
2018-09-26T03:54:01.735Z,99.60
2018-09-26T03:59:04.304Z,99.90
2018-09-26T04:04:06.909Z,99.70
2018-09-26T04:09:09.480Z,99.80
2018-09-26T04:14:12.074Z,99.90
2018-09-26T04:19:14.614Z,99.00
2018-09-26T04:24:17.116Z,98.60
2018-09-26T04:29:19.637Z,98.10
2018-09-26T04:34:22.167Z,97.90
2018-09-26T04:39:24.698Z,98.00
2018-09-26T04:44:27.229Z,98.50
2018-09-26T04:49:29.759Z,99.90
2018-09-26T04:54:32.274Z,99.90
2018-09-26T04:59:34.815Z,99.90
2018-09-26T05:04:37.823Z,99.90
2018-09-26T05:09:40.473Z,99.90
2018-09-26T05:14:43.096Z,99.90
2018-09-26T05:19:45.596Z,99.90
2018-09-26T05:24:48.126Z,99.90
2018-09-26T05:29:50.670Z,99.90
2018-09-26T05:34:53.173Z,99.90
2018-09-26T05:39:55.708Z,99.90
2018-09-26T05:44:58.233Z,99.90
2018-09-26T05:50:00.791Z,99.90
2018-09-26T05:55:03.396Z,99.90
2018-09-26T06:00:05.983Z,99.90
2018-09-26T06:05:08.591Z,99.90
2018-09-26T06:10:11.136Z,99.90
2018-09-26T06:15:13.656Z,99.90
2018-09-26T06:20:16.172Z,99.90
2018-09-26T06:25:18.691Z,99.90
2018-09-26T06:30:21.245Z,99.90
2018-09-26T06:35:23.757Z,99.90
2018-09-26T06:40:27.005Z,99.90
2018-09-26T06:45:29.503Z,99.90
2018-09-26T06:50:32.068Z,99.90
2018-09-26T06:55:34.584Z,99.90
2018-09-26T07:00:37.750Z,99.90
2018-09-26T07:05:40.260Z,99.90
2018-09-26T07:10:42.796Z,99.90
2018-09-26T07:15:45.335Z,99.90
2018-09-26T07:20:47.864Z,99.90
2018-09-26T07:25:50.387Z,99.90
2018-09-26T07:30:52.899Z,99.90
2018-09-26T07:35:55.421Z,99.90
2018-09-26T07:40:57.936Z,99.90
2018-09-26T07:46:00.488Z,99.90
2018-09-26T07:51:03.057Z,99.90
2018-09-26T07:56:05.703Z,99.90
2018-09-26T08:01:08.247Z,99.90
2018-09-26T08:06:10.779Z,98.40
2018-09-26T08:11:13.340Z,93.60
2018-09-26T08:16:15.851Z,89.30
2018-09-26T08:21:19.098Z,70.80
2018-09-26T08:26:21.620Z,60.60
2018-09-26T08:31:24.167Z,59.20
2018-09-26T08:36:26.712Z,56.10
2018-09-26T08:41:29.249Z,53.20
2018-09-26T08:46:31.765Z,52.20
2018-09-26T08:51:34.291Z,52.60
2018-09-26T08:56:36.899Z,50.40
2018-09-26T09:01:44.862Z,46.60
2018-09-26T09:06:47.391Z,46.70
2018-09-26T09:11:49.919Z,45.30
2018-09-26T09:16:52.494Z,42.90
2018-09-26T09:21:55.060Z,44.40
2018-09-26T09:26:57.603Z,44.20
2018-09-26T09:32:00.379Z,40.20
2018-09-26T09:37:02.985Z,38.60
2018-09-26T09:42:05.787Z,37.90
2018-09-26T09:47:08.334Z,38.70
2018-09-26T09:52:10.868Z,39.90
2018-09-26T09:57:13.396Z,38.20
2018-09-26T10:02:16.023Z,39.10
2018-09-26T10:07:18.551Z,39.60
2018-09-26T10:12:21.063Z,38.40
2018-09-26T10:17:23.577Z,37.90
2018-09-26T10:22:26.040Z,40.00
2018-09-26T10:27:28.582Z,39.90
2018-09-26T10:32:31.066Z,39.20
2018-09-26T10:37:33.561Z,38.20
2018-09-26T10:42:38.864Z,37.00
2018-09-26T10:47:41.376Z,37.00
2018-09-26T10:52:43.867Z,37.30
2018-09-26T10:57:46.361Z,36.00
2018-09-26T11:02:48.868Z,35.30
2018-09-26T11:07:51.380Z,35.20
2018-09-26T11:12:53.887Z,34.80
2018-09-26T11:17:56.372Z,35.10
2018-09-26T11:22:58.852Z,32.00
2018-09-26T11:28:01.345Z,30.80
2018-09-26T11:33:03.845Z,30.00
2018-09-26T11:38:06.360Z,29.90
2018-09-26T11:43:09.696Z,31.60
2018-09-26T11:48:12.199Z,31.40
2018-09-26T11:53:14.674Z,30.10
2018-09-26T11:58:17.285Z,29.80
2018-09-26T12:03:19.724Z,28.10
2018-09-26T12:08:22.226Z,27.90
2018-09-26T12:13:24.772Z,29.30
2018-09-26T12:18:27.319Z,29.20
2018-09-26T12:23:29.744Z,27.70
2018-09-26T12:28:32.408Z,27.50
2018-09-26T12:33:34.911Z,26.50
2018-09-26T12:38:37.394Z,24.80
2018-09-26T12:43:39.977Z,24.40
2018-09-26T12:48:43.221Z,24.70
2018-09-26T12:53:45.803Z,24.40
2018-09-26T12:58:48.222Z,23.50
2018-09-26T13:03:50.687Z,22.90
2018-09-26T13:08:53.224Z,23.20
2018-09-26T13:13:55.744Z,22.90
2018-09-26T13:18:58.309Z,22.20
2018-09-26T13:24:00.756Z,22.40
2018-09-26T13:29:03.301Z,22.00
2018-09-26T13:34:05.835Z,21.40
2018-09-26T13:39:08.638Z,20.40
2018-09-26T13:44:11.122Z,20.50
2018-09-26T13:49:13.591Z,21.70
2018-09-26T13:54:16.130Z,21.10
2018-09-26T13:59:18.592Z,22.30
2018-09-26T14:04:21.161Z,21.20
2018-09-26T14:09:23.667Z,21.40
2018-09-26T14:14:26.261Z,21.90
2018-09-26T14:19:29.316Z,22.20
2018-09-26T14:24:31.837Z,21.60
2018-09-26T14:29:36.609Z,22.30
2018-09-26T14:34:39.992Z,21.70
2018-09-26T14:39:42.534Z,22.00
2018-09-26T14:44:45.104Z,23.20
2018-09-26T14:49:47.599Z,25.40
2018-09-26T14:54:50.104Z,26.80
2018-09-26T14:59:52.555Z,25.90
2018-09-26T15:04:55.033Z,27.60
2018-09-26T15:09:57.496Z,28.40
2018-09-26T15:14:59.972Z,32.00
2018-09-26T15:20:02.549Z,33.10
2018-09-26T15:25:05.113Z,36.00
2018-09-26T15:30:07.889Z,35.70
2018-09-26T15:35:10.399Z,35.50
2018-09-26T15:40:13.002Z,41.00
2018-09-26T15:45:16.374Z,40.20
2018-09-26T15:50:18.933Z,42.30
2018-09-26T15:55:21.394Z,43.10
2018-09-26T16:00:23.964Z,43.60
2018-09-26T16:05:26.408Z,41.80
2018-09-26T16:10:28.955Z,44.20
2018-09-26T16:15:31.495Z,46.60
2018-09-26T16:20:33.986Z,48.20
2018-09-26T16:25:36.637Z,47.80
2018-09-26T16:30:39.060Z,45.60
2018-09-26T16:35:41.599Z,47.50
2018-09-26T16:40:44.147Z,52.10
2018-09-26T16:45:46.666Z,58.10
2018-09-26T16:50:49.507Z,61.70
2018-09-26T16:55:52.105Z,64.80
2018-09-26T17:00:54.628Z,73.10
2018-09-26T17:05:57.187Z,91.80
2018-09-26T17:10:59.703Z,99.90
2018-09-26T17:16:02.235Z,99.90
2018-09-26T17:21:04.804Z,99.90
2018-09-26T17:26:07.923Z,99.90
2018-09-26T17:31:10.420Z,99.90
2018-09-26T17:36:12.986Z,99.90
2018-09-26T17:41:15.534Z,99.90
2018-09-26T17:46:18.152Z,99.90
2018-09-26T17:51:21.622Z,99.90
2018-09-26T17:56:25.446Z,99.90
2018-09-26T18:01:28.049Z,99.90
2018-09-26T18:06:31.409Z,99.90
2018-09-26T18:11:33.886Z,99.90
2018-09-26T18:16:37.108Z,99.90
2018-09-26T18:21:39.682Z,99.90
2018-09-26T18:26:42.238Z,99.90
2018-09-26T18:31:44.772Z,99.90
2018-09-26T18:36:47.297Z,99.90
2018-09-26T18:41:49.878Z,99.90
2018-09-26T18:46:52.491Z,99.90
2018-09-26T18:51:55.032Z,99.90
2018-09-26T18:56:57.568Z,99.90
2018-09-26T19:02:00.089Z,99.90
2018-09-26T19:07:02.766Z,99.90
2018-09-26T19:12:05.324Z,99.90
2018-09-26T19:17:07.860Z,99.90
2018-09-26T19:22:10.391Z,99.90
2018-09-26T19:27:13.002Z,99.90
2018-09-26T19:32:15.512Z,99.90
2018-09-26T19:37:18.129Z,99.90
2018-09-26T19:42:20.713Z,99.90
2018-09-26T19:47:23.272Z,99.90
2018-09-26T19:52:26.055Z,99.90
2018-09-26T19:57:28.559Z,99.90
2018-09-26T20:02:31.183Z,99.90
2018-09-26T20:07:33.755Z,99.90
2018-09-26T20:12:36.298Z,99.90
2018-09-26T20:17:38.847Z,99.90
2018-09-26T20:22:41.353Z,99.90
2018-09-26T20:27:43.922Z,99.90
2018-09-26T20:32:46.442Z,99.90
2018-09-26T20:37:48.964Z,99.90
2018-09-26T20:42:51.677Z,99.90
2018-09-26T20:47:54.180Z,99.90
2018-09-26T20:52:56.691Z,99.90
2018-09-26T20:57:59.227Z,99.90
2018-09-26T21:03:01.840Z,99.90
2018-09-26T21:08:04.361Z,99.90
2018-09-26T21:13:07.069Z,99.90
2018-09-26T21:18:09.565Z,99.90
2018-09-26T21:23:12.110Z,99.90
2018-09-26T21:28:14.580Z,99.90
2018-09-26T21:33:17.093Z,99.90
2018-09-26T21:38:19.609Z,99.90
2018-09-26T21:43:22.090Z,99.90
2018-09-26T21:48:24.592Z,99.90
2018-09-26T21:53:27.138Z,99.90
2018-09-26T21:58:29.627Z,99.90
2018-09-26T22:03:32.839Z,99.90
2018-09-26T22:08:35.532Z,99.90
2018-09-26T22:13:38.158Z,99.90
2018-09-26T22:18:40.776Z,99.90
2018-09-26T22:23:43.422Z,99.90
2018-09-26T22:28:46.028Z,99.90
2018-09-26T22:33:48.641Z,99.90
2018-09-26T22:38:51.288Z,99.90
2018-09-26T22:43:53.956Z,99.90
2018-09-26T22:48:56.665Z,99.90
2018-09-26T22:53:59.295Z,99.90
2018-09-26T22:59:01.910Z,99.90
2018-09-26T23:04:04.528Z,99.90
2018-09-26T23:09:08.543Z,99.90
2018-09-26T23:14:11.190Z,99.90
2018-09-26T23:19:13.787Z,99.90
2018-09-26T23:24:16.411Z,99.90
2018-09-26T23:29:19.015Z,99.90
2018-09-26T23:34:21.629Z,99.90
2018-09-26T23:44:26.733Z,99.90
2018-09-26T23:49:29.386Z,99.90
2018-09-26T23:54:32.062Z,99.90
2018-09-26T23:59:34.721Z,99.90
